Time;durP1;ratioP1;P1;durP2;ratioP2;P2;SDS_P1;SDS_P2;PMS_P1;PMS_P2;Temp;Humidity;BMP_temperature;BMP_pressure;BME280_temperature;BME280_humidity;BME280_pressure;Samples;Min_cycle;Max_cycle;Signal;HPM_P1;HPM_P2
2022/07/24 00:01:27;;;;;;;17.90;13.50;;;23.10;73.90;;;;;;5066189;28;20184;-74
2022/07/24 00:03:53;;;;;;;19.50;14.30;;;23.10;74.50;;;;;;5055753;28;20341;-74
2022/07/24 00:06:18;;;;;;;22.57;14.63;;;23.10;74.80;;;;;;5069391;28;20766;-74
2022/07/24 00:08:44;;;;;;;18.30;13.30;;;23.10;75.80;;;;;;5068703;28;20191;-74
2022/07/24 00:11:11;;;;;;;18.80;12.67;;;23.00;76.10;;;;;;5071651;28;20177;-74
2022/07/24 00:13:36;;;;;;;16.93;12.33;;;23.00;75.50;;;;;;5066654;28;20244;-73
2022/07/24 00:16:02;;;;;;;16.83;13.00;;;23.00;74.80;;;;;;5061289;28;20534;-74
2022/07/24 00:18:28;;;;;;;18.27;13.33;;;23.00;75.20;;;;;;5068549;28;20768;-75
2022/07/24 00:20:53;;;;;;;19.40;14.13;;;22.90;76.10;;;;;;5063956;28;20280;-74
2022/07/24 00:23:19;;;;;;;20.50;14.10;;;22.90;76.40;;;;;;5066219;28;20579;-74
2022/07/24 00:25:45;;;;;;;17.43;12.80;;;22.80;76.70;;;;;;5069972;28;20297;-74
2022/07/24 00:28:10;;;;;;;20.80;12.60;;;22.80;76.50;;;;;;5068928;28;20284;-74
2022/07/24 00:30:37;;;;;;;19.00;14.50;;;22.80;76.10;;;;;;5070939;28;20264;-74
2022/07/24 00:33:03;;;;;;;19.77;14.00;;;22.80;76.20;;;;;;5060281;28;20212;-74
2022/07/24 00:35:28;;;;;;;21.73;14.80;;;22.80;76.70;;;;;;5065434;28;20490;-74
2022/07/24 00:37:54;;;;;;;20.17;14.80;;;22.80;77.10;;;;;;5067046;28;20199;-73
2022/07/24 00:40:20;;;;;;;21.23;14.30;;;22.80;77.60;;;;;;5067322;28;20182;-74
2022/07/24 00:42:46;;;;;;;19.33;14.10;;;22.90;77.40;;;;;;5079734;28;20203;-73
2022/07/24 00:45:11;;;;;;;27.37;14.57;;;22.80;77.70;;;;;;5081847;28;20486;-73
2022/07/24 00:47:37;;;;;;;20.40;13.57;;;22.70;78.00;;;;;;5080609;28;20265;-74
2022/07/24 00:50:04;;;;;;;21.83;14.77;;;22.50;78.40;;;;;;5072876;28;20195;-74
2022/07/24 00:52:30;;;;;;;21.63;15.03;;;22.40;78.70;;;;;;5075285;28;20191;-74
2022/07/24 00:54:56;;;;;;;22.20;14.90;;;22.30;79.30;;;;;;5076664;28;20821;-74
2022/07/24 00:57:21;;;;;;;20.07;14.23;;;22.20;79.50;;;;;;5064212;28;20536;-74
2022/07/24 00:59:47;;;;;;;18.00;13.27;;;22.30;79.50;;;;;;5068918;28;20190;-74
2022/07/24 01:02:13;;;;;;;17.20;11.43;;;22.40;78.90;;;;;;5061718;28;20719;-74
2022/07/24 01:04:39;;;;;;;15.80;11.03;;;22.30;77.30;;;;;;5068911;28;20214;-75
2022/07/24 01:07:07;;;;;;;16.37;11.67;;;22.30;76.50;;;;;;5067024;28;20213;-73
2022/07/24 01:09:33;;;;;;;18.30;11.00;;;22.40;75.50;;;;;;5061813;28;20803;-74
2022/07/24 01:11:59;;;;;;;15.60;10.77;;;22.50;74.90;;;;;;5067431;28;20466;-75
2022/07/24 01:14:25;;;;;;;13.57;10.10;;;22.40;74.60;;;;;;5071783;28;20473;-76
2022/07/24 01:16:51;;;;;;;15.47;10.80;;;22.40;74.50;;;;;;5062090;28;20537;-73
2022/07/24 01:19:17;;;;;;;14.03;10.50;;;22.40;74.30;;;;;;5067660;28;20892;-75
2022/07/24 01:21:48;;;;;;;14.80;10.20;;;22.40;74.30;;;;;;5071243;28;20194;-75
2022/07/24 01:24:14;;;;;;;12.23;8.93;;;22.40;74.00;;;;;;5068650;28;20434;-75
2022/07/24 01:26:39;;;;;;;15.33;9.93;;;22.40;74.00;;;;;;5061167;28;20804;-73
2022/07/24 01:29:05;;;;;;;12.40;9.67;;;22.50;73.70;;;;;;5069251;28;20187;-74
2022/07/24 01:31:31;;;;;;;14.00;9.80;;;22.50;73.70;;;;;;5068592;28;20179;-74
2022/07/24 01:33:56;;;;;;;14.40;10.00;;;22.50;73.70;;;;;;5071218;28;20704;-75
2022/07/24 01:36:22;;;;;;;13.50;10.10;;;22.50;73.70;;;;;;5068686;28;20498;-74
2022/07/24 01:38:48;;;;;;;13.27;9.17;;;22.50;73.60;;;;;;5071907;28;20700;-74
2022/07/24 01:41:13;;;;;;;14.60;9.80;;;22.50;73.60;;;;;;5066922;28;20535;-75
2022/07/24 01:43:39;;;;;;;16.83;10.40;;;22.50;73.60;;;;;;5068379;28;20189;-75
2022/07/24 01:46:05;;;;;;;14.97;10.20;;;22.50;73.60;;;;;;5064456;28;20223;-74
2022/07/24 01:48:31;;;;;;;13.87;10.00;;;22.40;74.00;;;;;;5066844;28;20270;-74
2022/07/24 01:50:57;;;;;;;15.00;9.93;;;22.40;74.00;;;;;;5070292;28;20504;-76
2022/07/24 01:53:22;;;;;;;15.60;10.43;;;22.30;74.50;;;;;;5069946;28;20184;-75
2022/07/24 01:55:52;;;;;;;14.47;10.97;;;22.30;74.60;;;;;;5068322;28;20215;-75
2022/07/24 01:58:18;;;;;;;12.77;8.90;;;22.20;74.80;;;;;;5066888;28;20211;-75
2022/07/24 02:00:43;;;;;;;15.00;10.17;;;22.30;74.50;;;;;;5065234;28;20943;-74
2022/07/24 02:03:09;;;;;;;15.33;10.00;;;22.30;74.30;;;;;;5062928;28;20195;-74
2022/07/24 02:05:35;;;;;;;14.83;9.80;;;22.30;74.50;;;;;;5067523;28;20226;-75
2022/07/24 02:08:00;;;;;;;15.03;10.30;;;22.20;74.50;;;;;;5071368;28;20197;-75
2022/07/24 02:10:28;;;;;;;12.80;9.17;;;22.20;74.50;;;;;;5065821;28;20331;-74
2022/07/24 02:12:54;;;;;;;18.33;10.07;;;22.10;74.50;;;;;;5068665;28;20558;-75
2022/07/24 02:15:20;;;;;;;18.10;9.70;;;22.20;74.50;;;;;;5069746;28;20470;-75
2022/07/24 02:17:50;;;;;;;12.00;9.50;;;22.20;74.30;;;;;;5065259;28;20445;-75
2022/07/24 02:20:17;;;;;;;14.03;10.37;;;22.10;74.50;;;;;;5062304;28;20193;-72
2022/07/24 02:22:43;;;;;;;15.33;9.10;;;22.10;74.60;;;;;;5066222;28;20907;-75
2022/07/24 02:25:09;;;;;;;13.97;10.30;;;22.00;74.90;;;;;;5063010;28;20535;-73
2022/07/24 02:27:35;;;;;;;13.93;10.33;;;21.90;74.90;;;;;;5069512;28;20504;-74
2022/07/24 02:30:00;;;;;;;12.80;9.80;;;21.80;75.10;;;;;;5065606;28;20520;-75
2022/07/24 02:32:26;;;;;;;13.37;9.97;;;21.60;75.50;;;;;;5069003;28;20210;-74
2022/07/24 02:34:52;;;;;;;15.00;10.60;;;21.50;75.70;;;;;;5063806;28;20640;-74
2022/07/24 02:37:17;;;;;;;13.70;9.83;;;21.40;76.10;;;;;;5061154;28;20217;-75
2022/07/24 02:39:43;;;;;;;15.93;11.10;;;21.50;76.10;;;;;;5060723;28;20186;-73
2022/07/24 02:42:08;;;;;;;18.20;12.27;;;21.40;77.40;;;;;;5063129;28;20191;-74
2022/07/24 02:44:34;;;;;;;13.30;9.67;;;21.50;78.70;;;;;;5066535;28;20573;-74
2022/07/24 02:47:00;;;;;;;14.27;10.20;;;21.50;78.60;;;;;;5060413;28;20738;-74
2022/07/24 02:49:25;;;;;;;20.80;12.97;;;21.50;77.80;;;;;;5060735;28;20273;-75
2022/07/24 02:51:51;;;;;;;24.40;13.30;;;21.50;78.90;;;;;;5059317;28;20649;-73
2022/07/24 02:54:16;;;;;;;17.90;12.03;;;21.60;79.20;;;;;;5068855;28;20661;-74
2022/07/24 02:56:42;;;;;;;17.97;11.97;;;21.50;79.30;;;;;;5063858;28;20207;-74
2022/07/24 02:59:08;;;;;;;17.50;12.13;;;21.50;79.20;;;;;;5068380;28;20276;-75
2022/07/24 03:01:34;;;;;;;19.47;11.87;;;21.50;79.00;;;;;;5065354;28;20182;-73
2022/07/24 03:03:59;;;;;;;14.93;10.90;;;21.40;79.00;;;;;;5064501;28;20185;-74
2022/07/24 03:06:25;;;;;;;14.60;10.87;;;21.40;78.10;;;;;;5058052;28;20320;-74
2022/07/24 03:08:51;;;;;;;14.47;10.50;;;21.30;77.80;;;;;;5064188;28;20247;-74
2022/07/24 03:11:16;;;;;;;15.63;10.50;;;21.30;77.60;;;;;;5063588;28;20181;-74
2022/07/24 03:13:42;;;;;;;14.87;10.73;;;21.20;77.60;;;;;;5060219;28;20261;-74
2022/07/24 03:16:07;;;;;;;14.10;10.00;;;21.20;77.40;;;;;;5062639;28;20263;-76
2022/07/24 03:18:33;;;;;;;15.17;10.70;;;21.20;77.10;;;;;;5065171;28;20198;-74
2022/07/24 03:20:59;;;;;;;16.43;11.63;;;21.20;77.10;;;;;;5063716;28;20254;-75
2022/07/24 03:23:24;;;;;;;15.77;11.57;;;21.10;78.90;;;;;;5065998;28;20185;-75
2022/07/24 03:25:50;;;;;;;19.00;11.97;;;21.10;79.50;;;;;;5064383;28;20546;-75
2022/07/24 03:28:16;;;;;;;17.40;11.50;;;21.10;79.60;;;;;;5069243;28;20193;-75
2022/07/24 03:30:41;;;;;;;17.63;12.33;;;21.00;80.00;;;;;;5069879;28;20296;-75
2022/07/24 03:33:07;;;;;;;22.40;11.40;;;20.90;80.20;;;;;;5061671;28;20184;-73
2022/07/24 03:35:32;;;;;;;18.17;11.30;;;20.90;80.30;;;;;;5061494;28;20295;-74
2022/07/24 03:37:58;;;;;;;19.93;12.10;;;20.90;80.30;;;;;;5054034;28;20189;-74
2022/07/24 03:40:23;;;;;;;17.13;11.70;;;20.80;80.60;;;;;;5069286;28;20189;-74
2022/07/24 03:42:49;;;;;;;17.30;10.87;;;20.80;80.00;;;;;;5061235;28;20307;-74
2022/07/24 03:45:15;;;;;;;16.83;11.30;;;20.80;79.70;;;;;;5063579;28;20228;-74
2022/07/24 03:47:40;;;;;;;19.30;11.50;;;20.70;80.00;;;;;;5064605;28;20735;-74
2022/07/24 03:50:06;;;;;;;17.20;11.67;;;20.80;80.20;;;;;;5069302;28;20181;-74
2022/07/24 03:52:32;;;;;;;15.83;11.33;;;20.80;79.70;;;;;;5070259;28;20648;-75
2022/07/24 03:54:58;;;;;;;14.03;10.10;;;20.80;79.30;;;;;;5069929;28;20456;-74
2022/07/24 03:57:23;;;;;;;14.50;10.50;;;20.70;79.50;;;;;;5058361;28;20282;-73
2022/07/24 03:59:49;;;;;;;17.77;11.30;;;20.80;79.60;;;;;;5066550;28;20197;-74
2022/07/24 04:02:15;;;;;;;19.63;12.00;;;20.80;79.60;;;;;;5061304;28;20645;-75
2022/07/24 04:04:41;;;;;;;17.37;12.27;;;20.80;79.90;;;;;;5072107;28;20260;-74
2022/07/24 04:07:06;;;;;;;17.07;11.00;;;20.80;80.20;;;;;;5067482;28;20731;-75
2022/07/24 04:09:32;;;;;;;13.90;11.03;;;20.80;80.30;;;;;;5069528;28;20640;-76
2022/07/24 04:11:58;;;;;;;15.20;11.20;;;20.80;80.20;;;;;;5068583;28;20929;-74
2022/07/24 04:14:24;;;;;;;15.67;10.20;;;20.90;80.20;;;;;;5062160;28;20190;-75
2022/07/24 04:16:50;;;;;;;23.87;12.20;;;20.90;79.60;;;;;;5063396;28;20487;-74
2022/07/24 04:19:16;;;;;;;19.30;12.40;;;21.00;79.50;;;;;;5066712;28;20319;-75
2022/07/24 04:21:41;;;;;;;19.33;11.77;;;20.90;79.70;;;;;;5066208;28;20499;-74
2022/07/24 04:24:07;;;;;;;19.23;12.40;;;20.90;80.30;;;;;;5072043;28;20200;-75
2022/07/24 04:26:33;;;;;;;15.83;11.00;;;20.90;80.30;;;;;;5064751;28;20244;-76
2022/07/24 04:28:58;;;;;;;18.70;12.90;;;20.90;80.30;;;;;;5071199;28;20701;-75
2022/07/24 04:31:24;;;;;;;20.40;13.37;;;20.90;80.90;;;;;;5071691;28;20183;-74
2022/07/24 04:33:49;;;;;;;16.67;11.90;;;21.00;80.80;;;;;;5060757;28;20186;-73
2022/07/24 04:36:15;;;;;;;21.63;12.33;;;21.10;80.30;;;;;;5068205;28;20292;-74
2022/07/24 04:38:41;;;;;;;16.40;11.80;;;21.10;80.00;;;;;;5068317;28;20555;-75
2022/07/24 04:41:06;;;;;;;16.70;12.10;;;21.10;79.60;;;;;;5062491;28;20203;-75
2022/07/24 04:43:32;;;;;;;15.70;11.90;;;21.10;79.70;;;;;;5072255;28;20239;-74
2022/07/24 04:45:58;;;;;;;20.37;13.07;;;21.10;79.50;;;;;;5068399;28;20352;-75
2022/07/24 04:48:25;;;;;;;15.23;11.00;;;21.20;79.50;;;;;;5068420;28;20632;-74
2022/07/24 04:50:51;;;;;;;18.63;12.80;;;21.20;79.50;;;;;;5062797;28;20800;-74
2022/07/24 04:53:17;;;;;;;20.30;14.30;;;21.20;79.90;;;;;;5074615;28;20980;-75
2022/07/24 04:55:43;;;;;;;21.13;13.40;;;21.30;80.00;;;;;;5063684;28;20596;-74
2022/07/24 04:58:08;;;;;;;19.93;13.80;;;21.40;79.90;;;;;;5070401;28;20185;-75
2022/07/24 05:00:34;;;;;;;17.77;12.90;;;21.40;79.60;;;;;;5066828;28;20193;-75
2022/07/24 05:03:00;;;;;;;18.20;11.53;;;21.30;79.70;;;;;;5074930;28;20213;-74
2022/07/24 05:05:25;;;;;;;18.70;13.40;;;21.30;79.90;;;;;;5072802;28;20214;-74
2022/07/24 05:07:51;;;;;;;18.20;12.07;;;21.30;79.90;;;;;;5083037;28;20229;-74
2022/07/24 05:10:16;;;;;;;19.03;12.10;;;21.30;80.20;;;;;;5084821;28;20189;-74
2022/07/24 05:12:42;;;;;;;17.83;11.60;;;21.30;79.90;;;;;;5079893;28;20278;-74
2022/07/24 05:15:08;;;;;;;16.50;11.40;;;21.40;79.60;;;;;;5071777;28;20255;-74
2022/07/24 05:17:35;;;;;;;17.73;12.17;;;21.50;79.30;;;;;;5077050;28;20198;-74
2022/07/24 05:20:02;;;;;;;16.73;12.40;;;21.50;79.20;;;;;;5073195;28;20517;-75
2022/07/24 05:22:27;;;;;;;16.10;12.27;;;21.60;78.90;;;;;;5076079;28;20443;-76
2022/07/24 05:24:53;;;;;;;17.70;13.10;;;21.60;78.90;;;;;;5072256;28;20473;-75
2022/07/24 05:27:19;;;;;;;16.73;11.93;;;21.70;78.60;;;;;;5073491;28;20210;-75
2022/07/24 05:29:46;;;;;;;17.27;12.60;;;21.80;78.10;;;;;;5073433;28;20178;-74
2022/07/24 05:32:13;;;;;;;16.77;12.20;;;21.90;77.60;;;;;;5075398;28;20233;-75
2022/07/24 05:34:38;;;;;;;20.17;13.53;;;21.90;77.10;;;;;;5072390;28;20424;-74
2022/07/24 05:37:04;;;;;;;17.67;11.93;;;22.00;77.00;;;;;;5073602;28;20210;-75
2022/07/24 05:39:30;;;;;;;17.50;12.20;;;22.00;77.00;;;;;;5073486;28;20187;-74
2022/07/24 05:41:56;;;;;;;19.30;13.20;;;22.00;77.10;;;;;;5069919;28;20194;-75
2022/07/24 05:44:21;;;;;;;22.90;13.53;;;22.10;77.10;;;;;;5063017;28;20222;-75
2022/07/24 05:46:47;;;;;;;18.93;12.70;;;22.10;77.10;;;;;;5060524;28;20215;-74
2022/07/24 05:49:12;;;;;;;15.70;12.43;;;22.20;76.80;;;;;;5065400;28;20194;-75
2022/07/24 05:51:38;;;;;;;17.00;12.17;;;22.40;76.20;;;;;;5066834;28;20187;-75
2022/07/24 05:54:04;;;;;;;19.00;12.67;;;22.50;75.70;;;;;;5065442;28;20176;-74
2022/07/24 05:56:30;;;;;;;20.00;13.07;;;22.50;75.50;;;;;;5064120;28;20696;-75
2022/07/24 05:58:56;;;;;;;17.23;12.43;;;22.50;75.20;;;;;;5069771;28;20235;-75
2022/07/24 06:01:22;;;;;;;20.37;13.67;;;22.50;75.20;;;;;;5067336;28;20449;-75
2022/07/24 06:03:47;;;;;;;14.80;12.03;;;22.50;74.80;;;;;;5069273;28;20199;-75
2022/07/24 06:06:13;;;;;;;18.80;12.60;;;22.60;75.10;;;;;;5063290;28;20468;-73
2022/07/24 06:08:39;;;;;;;16.37;12.00;;;22.70;75.10;;;;;;5062484;28;20759;-76
2022/07/24 06:11:05;;;;;;;18.53;12.93;;;22.70;74.90;;;;;;5066972;28;20260;-75
2022/07/24 06:13:30;;;;;;;19.17;12.77;;;22.80;74.50;;;;;;5067959;28;20179;-76
2022/07/24 06:15:56;;;;;;;17.23;12.37;;;23.00;74.20;;;;;;5063644;28;20224;-75
2022/07/24 06:18:21;;;;;;;15.53;11.60;;;23.10;73.50;;;;;;5068188;28;20277;-74
2022/07/24 06:20:47;;;;;;;19.80;12.70;;;23.20;73.20;;;;;;5069110;28;20185;-73
2022/07/24 06:23:13;;;;;;;16.60;12.40;;;23.30;72.90;;;;;;5060638;28;20192;-74
2022/07/24 06:25:38;;;;;;;18.10;13.03;;;23.30;72.00;;;;;;5062325;28;20694;-75
2022/07/24 06:28:04;;;;;;;16.23;12.00;;;23.40;71.70;;;;;;5062329;28;20668;-74
2022/07/24 06:30:30;;;;;;;17.80;11.97;;;23.50;71.60;;;;;;5060330;28;20347;-74
2022/07/24 06:32:57;;;;;;;21.17;12.70;;;23.60;71.00;;;;;;5060099;28;20186;-75
2022/07/24 06:35:24;;;;;;;19.77;12.63;;;23.60;71.00;;;;;;5060024;28;20218;-74
2022/07/24 06:37:50;;;;;;;17.20;11.50;;;23.50;70.40;;;;;;5062302;28;20426;-76
2022/07/24 06:40:17;;;;;;;15.07;11.97;;;23.50;70.50;;;;;;5063667;28;20922;-74
2022/07/24 06:42:44;;;;;;;17.70;12.40;;;23.60;70.40;;;;;;5064377;28;20194;-73
2022/07/24 06:45:10;;;;;;;16.03;11.80;;;23.70;70.10;;;;;;5060725;28;20472;-74
2022/07/24 06:47:36;;;;;;;19.17;12.50;;;23.80;69.90;;;;;;5065484;28;20417;-74
2022/07/24 06:50:02;;;;;;;17.70;12.30;;;23.80;69.40;;;;;;5062732;28;20429;-75
2022/07/24 06:52:28;;;;;;;16.73;11.53;;;23.90;69.50;;;;;;5066505;28;20184;-76
2022/07/24 06:54:54;;;;;;;18.03;12.40;;;24.00;68.90;;;;;;5056479;28;20430;-76
2022/07/24 06:57:19;;;;;;;17.20;12.40;;;24.10;68.50;;;;;;5066979;28;20728;-74
2022/07/24 06:59:45;;;;;;;17.77;12.70;;;24.00;68.30;;;;;;5067826;28;20182;-73
2022/07/24 07:02:11;;;;;;;19.00;13.27;;;23.90;68.50;;;;;;5067166;28;20195;-76
2022/07/24 07:04:36;;;;;;;20.90;13.73;;;24.00;69.80;;;;;;5069261;28;20239;-75
2022/07/24 07:07:03;;;;;;;21.10;13.27;;;24.00;70.10;;;;;;5063022;28;20732;-75
2022/07/24 07:09:29;;;;;;;21.90;15.63;;;24.10;71.00;;;;;;5061311;28;20186;-76
2022/07/24 07:11:55;;;;;;;26.90;15.00;;;24.20;72.30;;;;;;5065340;28;20798;-77
2022/07/24 07:14:21;;;;;;;24.00;14.50;;;24.20;72.60;;;;;;5062443;28;20787;-75
2022/07/24 07:16:47;;;;;;;21.63;15.53;;;24.20;72.40;;;;;;5065735;28;20227;-75
2022/07/24 07:19:12;;;;;;;18.43;14.83;;;24.10;72.70;;;;;;5065925;28;20198;-73
2022/07/24 07:21:38;;;;;;;24.30;15.97;;;24.20;72.60;;;;;;5065646;28;20475;-72
2022/07/24 07:24:07;;;;;;;25.37;15.33;;;24.30;72.40;;;;;;5066383;28;20225;-73
2022/07/24 07:26:32;;;;;;;24.33;15.77;;;24.40;72.30;;;;;;5058798;28;20223;-73
2022/07/24 07:28:58;;;;;;;21.00;15.43;;;24.30;72.60;;;;;;5059112;28;20470;-73
2022/07/24 07:31:25;;;;;;;20.80;15.17;;;24.20;73.30;;;;;;5059097;28;20204;-73
2022/07/24 07:33:51;;;;;;;20.73;14.87;;;24.30;73.30;;;;;;5064813;28;20582;-73
2022/07/24 07:36:16;;;;;;;20.03;15.77;;;24.30;73.30;;;;;;5055495;28;20463;-73
2022/07/24 07:38:42;;;;;;;34.00;19.20;;;24.50;72.90;;;;;;5062789;28;20203;-73
2022/07/24 07:41:07;;;;;;;28.30;18.90;;;24.60;72.40;;;;;;5070797;28;20645;-73
2022/07/24 07:43:33;;;;;;;27.37;19.47;;;24.60;72.10;;;;;;5062977;28;20229;-72
2022/07/24 07:45:59;;;;;;;25.23;16.10;;;24.60;71.70;;;;;;5061727;28;20595;-72
2022/07/24 07:48:24;;;;;;;24.20;16.03;;;24.60;71.40;;;;;;5065522;28;20214;-72
2022/07/24 07:50:50;;;;;;;20.10;14.67;;;24.70;71.00;;;;;;5061170;28;20263;-72
2022/07/24 07:53:16;;;;;;;24.83;18.20;;;24.80;70.20;;;;;;5068994;28;20650;-71
2022/07/24 07:55:42;;;;;;;19.60;14.07;;;24.90;69.70;;;;;;5060364;28;20206;-73
2022/07/24 07:58:09;;;;;;;25.27;16.83;;;24.90;69.20;;;;;;5059120;28;20682;-73
2022/07/24 08:00:36;;;;;;;19.40;13.93;;;25.10;68.90;;;;;;5067456;28;20473;-72
2022/07/24 08:03:01;;;;;;;18.30;13.43;;;25.20;68.00;;;;;;5067238;28;20440;-72
2022/07/24 08:05:27;;;;;;;18.33;13.23;;;25.20;67.90;;;;;;5067428;28;20470;-73
2022/07/24 08:07:53;;;;;;;23.37;13.67;;;25.30;67.00;;;;;;5069694;28;20679;-72
2022/07/24 08:10:19;;;;;;;17.13;12.47;;;25.30;66.60;;;;;;5070605;28;20423;-71
2022/07/24 08:12:44;;;;;;;18.30;12.70;;;25.40;66.30;;;;;;5069880;28;20186;-72
2022/07/24 08:15:10;;;;;;;19.57;13.03;;;25.50;65.70;;;;;;5069586;28;20265;-71
2022/07/24 08:17:36;;;;;;;17.30;12.30;;;25.60;65.40;;;;;;5067408;28;20202;-72
2022/07/24 08:20:02;;;;;;;16.27;12.70;;;25.60;64.70;;;;;;5066710;28;20439;-72
2022/07/24 08:22:28;;;;;;;18.27;12.30;;;25.70;63.20;;;;;;5071660;28;20185;-72
2022/07/24 08:24:53;;;;;;;16.33;11.67;;;25.70;62.80;;;;;;5070375;28;20481;-72
2022/07/24 08:27:19;;;;;;;16.43;11.97;;;25.60;62.60;;;;;;5066648;28;20202;-72
2022/07/24 08:29:44;;;;;;;14.37;11.50;;;25.70;62.80;;;;;;5067057;28;20273;-73
2022/07/24 08:32:10;;;;;;;17.20;12.23;;;25.80;62.60;;;;;;5067509;28;20273;-73
2022/07/24 08:34:36;;;;;;;15.73;11.37;;;26.00;62.50;;;;;;5065254;28;20202;-72
2022/07/24 08:37:01;;;;;;;16.33;12.73;;;26.00;61.70;;;;;;5066795;28;20209;-74
2022/07/24 08:39:27;;;;;;;16.23;11.87;;;26.10;61.30;;;;;;5066826;28;20185;-72
2022/07/24 08:41:53;;;;;;;15.70;12.33;;;26.10;61.60;;;;;;5065690;28;20597;-73
2022/07/24 08:44:19;;;;;;;15.50;11.30;;;26.30;61.00;;;;;;5072288;28;20178;-72
2022/07/24 08:46:45;;;;;;;15.30;11.17;;;26.30;60.90;;;;;;5066613;28;20221;-73
2022/07/24 08:49:13;;;;;;;15.50;12.00;;;26.40;60.40;;;;;;5065137;28;20501;-73
2022/07/24 08:51:40;;;;;;;17.43;12.07;;;26.40;60.40;;;;;;5058640;28;20555;-72
2022/07/24 08:54:07;;;;;;;15.53;11.37;;;26.50;60.30;;;;;;5063407;28;20821;-73
2022/07/24 08:56:33;;;;;;;14.03;11.40;;;26.60;60.30;;;;;;5070004;28;20780;-74
2022/07/24 08:58:59;;;;;;;16.37;11.20;;;26.70;59.60;;;;;;5069654;28;20832;-71
2022/07/24 09:01:24;;;;;;;13.47;11.30;;;26.70;59.30;;;;;;5064880;28;20414;-73
2022/07/24 09:03:50;;;;;;;16.23;11.37;;;26.80;59.10;;;;;;5065190;28;20184;-73
2022/07/24 09:06:16;;;;;;;14.93;11.17;;;26.90;58.70;;;;;;5067819;28;20741;-73
2022/07/24 09:08:55;;;;;;;18.73;11.40;;;27.00;58.00;;;;;;5065038;28;20232;-72
2022/07/24 09:11:21;;;;;;;14.73;10.63;;;27.00;57.80;;;;;;5059217;28;20433;-73
2022/07/24 09:16:36;;;;;;;20.13;12.67;;;27.30;56.90;;;;;;5058077;28;20299;-72
2022/07/24 09:19:09;;;;;;;20.03;14.40;;;27.40;56.40;;;;;;5063652;28;20531;-73
2022/07/24 09:21:37;;;;;;;23.57;15.40;;;27.40;56.10;;;;;;5067997;28;20508;-72
2022/07/24 09:24:20;;;;;;;20.77;13.03;;;27.40;56.40;;;;;;5070133;28;20433;-74
2022/07/24 09:26:56;;;;;;;16.53;12.00;;;27.50;55.70;;;;;;5068099;28;20483;-74
2022/07/24 09:29:25;;;;;;;16.13;10.53;;;27.50;56.10;;;;;;5075778;28;20425;-72
2022/07/24 09:32:01;;;;;;;15.43;10.73;;;27.70;55.60;;;;;;5075946;28;20438;-73
2022/07/24 09:34:30;;;;;;;15.23;10.40;;;28.00;54.60;;;;;;5071905;28;20516;-72
2022/07/24 09:37:00;;;;;;;15.77;11.77;;;28.20;54.50;;;;;;5062967;28;20530;-72
2022/07/24 09:39:27;;;;;;;17.40;11.50;;;28.10;54.10;;;;;;5067547;28;20423;-71
2022/07/24 09:41:55;;;;;;;14.67;11.03;;;28.00;54.40;;;;;;5067559;28;20507;-72
2022/07/24 09:44:23;;;;;;;14.00;11.60;;;27.90;54.40;;;;;;5064515;28;20406;-72
2022/07/24 09:46:57;;;;;;;15.20;10.47;;;27.80;54.60;;;;;;5060837;28;20458;-72
2022/07/24 09:49:24;;;;;;;15.47;11.27;;;27.70;54.40;;;;;;5067418;28;20421;-73
2022/07/24 09:52:14;;;;;;;18.07;11.43;;;27.80;54.40;;;;;;5067501;28;20425;-73
2022/07/24 09:54:47;;;;;;;14.90;11.00;;;27.60;54.50;;;;;;5059158;28;20434;-73
2022/07/24 09:57:27;;;;;;;15.10;11.50;;;27.60;54.60;;;;;;5065629;28;20482;-74
2022/07/24 10:00:04;;;;;;;14.80;11.10;;;27.70;54.90;;;;;;5066580;28;20456;-73
2022/07/24 10:02:32;;;;;;;16.60;10.67;;;27.70;54.40;;;;;;5066926;28;20920;-74
2022/07/24 10:05:03;;;;;;;12.70;10.20;;;27.80;54.40;;;;;;5067442;28;20545;-72
2022/07/24 10:07:29;;;;;;;16.00;11.43;;;28.00;53.60;;;;;;5064271;28;20442;-72
2022/07/24 10:09:57;;;;;;;16.50;11.80;;;27.80;54.10;;;;;;5067142;28;20457;-72
2022/07/24 10:12:25;;;;;;;12.37;10.00;;;27.90;53.60;;;;;;5065947;28;20505;-75
2022/07/24 10:14:53;;;;;;;15.80;11.90;;;28.10;53.40;;;;;;5067477;28;20434;-73
2022/07/24 10:17:22;;;;;;;16.10;11.40;;;28.20;52.80;;;;;;5060205;28;20485;-75
2022/07/24 10:19:50;;;;;;;14.33;11.27;;;28.00;52.80;;;;;;5066011;28;20427;-73
2022/07/24 10:22:21;;;;;;;13.20;10.37;;;27.50;54.10;;;;;;5067289;28;20936;-73
2022/07/24 10:25:06;;;;;;;18.00;11.33;;;27.70;54.20;;;;;;5064411;28;20469;-72
2022/07/24 10:27:34;;;;;;;14.90;11.40;;;27.30;54.60;;;;;;5063417;28;20476;-73
2022/07/24 10:30:09;;;;;;;15.50;11.83;;;27.40;54.90;;;;;;5066384;28;20426;-74
2022/07/24 10:32:36;;;;;;;15.70;12.17;;;27.60;54.60;;;;;;5064906;28;20426;-72
2022/07/24 10:35:19;;;;;;;15.23;11.47;;;28.10;53.40;;;;;;5066341;28;20438;-72
2022/07/24 10:38:29;;;;;;;15.63;10.90;;;28.70;51.60;;;;;;5065852;28;20491;-73
2022/07/24 10:41:01;;;;;;;13.13;10.53;;;28.80;50.70;;;;;;5063086;28;20444;-72
2022/07/24 10:43:26;;;;;;;15.00;10.77;;;29.10;50.20;;;;;;5064210;28;20422;-72
2022/07/24 10:45:58;;;;;;;19.07;10.87;;;29.40;49.90;;;;;;5059421;28;20482;-74
2022/07/24 10:48:25;;;;;;;19.30;12.50;;;29.80;47.80;;;;;;5071487;28;20207;-74
2022/07/24 10:50:57;;;;;;;16.00;12.30;;;29.80;47.90;;;;;;5069292;28;20423;-73
2022/07/24 10:53:26;;;;;;;16.93;11.20;;;29.80;47.90;;;;;;5064974;28;20433;-73
2022/07/24 10:55:54;;;;;;;13.20;10.30;;;29.60;48.20;;;;;;5061510;28;20538;-73
2022/07/24 10:58:21;;;;;;;13.90;10.20;;;29.30;49.00;;;;;;5061065;28;20452;-71
2022/07/24 11:00:51;;;;;;;15.00;10.47;;;29.50;48.90;;;;;;5069330;28;20419;-73
2022/07/24 11:03:26;;;;;;;16.53;11.73;;;29.50;48.50;;;;;;5064865;28;20931;-71
2022/07/24 11:06:05;;;;;;;15.70;10.93;;;29.80;47.70;;;;;;5061085;28;20493;-72
2022/07/24 11:08:36;;;;;;;14.63;11.10;;;30.20;47.10;;;;;;5063774;28;20430;-71
2022/07/24 11:11:10;;;;;;;20.40;11.63;;;29.90;47.10;;;;;;5066955;28;20475;-73
2022/07/24 11:13:36;;;;;;;12.63;10.40;;;29.50;48.50;;;;;;5071058;28;20417;-74
2022/07/24 11:16:10;;;;;;;15.53;11.23;;;29.80;48.10;;;;;;5067792;28;20481;-75
2022/07/24 11:18:59;;;;;;;14.07;10.00;;;30.50;46.70;;;;;;5065354;28;20182;-73
2022/07/24 11:21:28;;;;;;;12.77;10.43;;;30.40;45.90;;;;;;5061008;28;20884;-72
2022/07/24 11:24:22;;;;;;;11.97;10.00;;;30.30;45.80;;;;;;5070418;28;20959;-73
2022/07/24 11:26:49;;;;;;;12.60;10.03;;;29.80;47.40;;;;;;5067326;28;20474;-74
2022/07/24 11:29:24;;;;;;;13.90;10.87;;;30.00;46.70;;;;;;5071064;28;20422;-73
2022/07/24 11:31:54;;;;;;;13.77;10.50;;;30.30;46.30;;;;;;5070975;28;20417;-72
2022/07/24 11:34:20;;;;;;;15.47;10.57;;;30.60;45.40;;;;;;5058142;28;20418;-74
2022/07/24 11:36:48;;;;;;;12.90;9.60;;;30.60;46.20;;;;;;5070308;28;21075;-73
2022/07/24 11:39:15;;;;;;;13.30;10.23;;;31.30;44.70;;;;;;5066132;28;20422;-73
2022/07/24 11:41:52;;;;;;;12.93;9.67;;;31.80;43.20;;;;;;5072355;28;20418;-73
2022/07/24 11:44:34;;;;;;;14.73;10.73;;;32.10;42.80;;;;;;5065748;28;20419;-73
2022/07/24 11:47:07;;;;;;;13.73;9.70;;;32.30;42.20;;;;;;5065778;28;20562;-74
2022/07/24 11:49:47;;;;;;;11.37;9.57;;;32.60;41.60;;;;;;5068461;28;20418;-73
2022/07/24 11:52:17;;;;;;;12.83;10.30;;;32.70;41.40;;;;;;5061151;28;20924;-74
2022/07/24 11:54:44;;;;;;;14.07;10.73;;;32.70;41.20;;;;;;5068044;28;20850;-73
2022/07/24 11:57:18;;;;;;;14.23;10.80;;;31.70;42.30;;;;;;5064959;28;20901;-74
2022/07/24 11:59:44;;;;;;;13.07;10.67;;;31.20;43.20;;;;;;5065932;28;20417;-73
2022/07/24 12:02:10;;;;;;;14.73;11.13;;;31.10;43.80;;;;;;5063505;28;20428;-75
2022/07/24 12:04:39;;;;;;;13.70;10.70;;;31.10;43.70;;;;;;5065507;28;20215;-73
2022/07/24 12:07:09;;;;;;;15.17;11.47;;;31.10;43.70;;;;;;5066595;28;20467;-75
2022/07/24 12:10:00;;;;;;;13.70;10.20;;;31.50;42.60;;;;;;5059007;28;20454;-74
2022/07/24 12:12:32;;;;;;;14.77;10.40;;;32.00;42.00;;;;;;5057931;28;20960;-74
2022/07/24 12:15:11;;;;;;;13.00;10.73;;;32.30;41.10;;;;;;5069754;28;20509;-76
2022/07/24 12:18:01;;;;;;;14.40;9.93;;;32.50;41.20;;;;;;5065890;28;20511;-76
2022/07/24 12:20:38;;;;;;;15.53;10.63;;;32.60;41.00;;;;;;5069049;28;20426;-76
2022/07/24 12:23:09;;;;;;;13.17;10.73;;;32.70;40.30;;;;;;5063944;28;20422;-74
2022/07/24 12:25:35;;;;;;;11.57;10.00;;;32.50;41.40;;;;;;5068886;28;20944;-74
2022/07/24 12:28:15;;;;;;;13.63;10.20;;;33.10;40.80;;;;;;5066740;28;20423;-74
2022/07/24 12:30:43;;;;;;;14.70;10.80;;;33.30;39.60;;;;;;5066596;28;20181;-74
2022/07/24 12:33:24;;;;;;;11.63;10.10;;;33.40;39.20;;;;;;5069408;28;20422;-75